KCAK/CAK METAR and TAF weather

Enter ICAO airport designator
Station Type Date Time Source
KCAK METAR 2018/10/21 05:51 UTC NOAA

KCAK 210551Z 33015G26KT 10SM OVC035 04/M02 A3003 RMK AO2 PK WND 32029/0509 SLP172 60020 T00391017 10061 20028 51047


Station Type Date Time Source
KCAK Decoded METAR 2018/10/21 05:51 UTC NOAA

AKRON-CANTON REGIONAL AIRPORT , OH, United States (KCAK) 40-55N 081-27W 377M
Oct 21, 2018 - 01:51 AM EDT / 2018.10.21 0551 UTC
Wind: from the NNW (330 degrees) at 17 MPH (15 KT) gusting to 30 MPH (26 KT):0
Visibility: 10 mile(s):0
Sky conditions: overcast
Temperature: 39.0 F (3.9 C)
Dew Point: 28.9 F (-1.7 C)
Relative Humidity: 66%
Pressure (altimeter): 30.03 in. Hg (1016 hPa)
Pressure tendency: 0.14 inches (4.7 hPa) higher than three hours ago
ob: KCAK 210551Z 33015G26KT 10SM OVC035 04/M02 A3003 RMK AO2 PK WND 32029/0509 SLP172 60020 T00391017 10061 20028 51047
cycle: 6

Station Type Date Time Source
KCAK TAF 2018/10/21 06:22 UTC NOAA

TAF KCAK 210520Z 2106/2206 33014G22KT P6SM VCSH SCT015 OVC035
TEMPO 2106/2110 4SM -RASN OVC015
FM211200 31012KT P6SM OVC035
FM211900 30010KT P6SM BKN035
FM212200 28008KT P6SM SCT040


Example: see airport list